Time;durP1;ratioP1;P1;durP2;ratioP2;P2;SDS_P1;SDS_P2;PMS_P1;PMS_P2;Temp;Humidity;BMP_temperature;BMP_pressure;BME280_temperature;BME280_humidity;BME280_pressure;Samples;Min_cycle;Max_cycle;Signal;HPM_P1;HPM_P2
2021/08/15 00:02:06;;;;;;;5.40;3.70;;;23.00;70.20;;;;;;4207137;28;20074;-64
2021/08/15 00:04:28;;;;;;;4.32;3.92;;;23.00;70.20;;;;;;4207875;28;20032;-63
2021/08/15 00:06:54;;;;;;;5.47;4.47;;;23.00;70.30;;;;;;4207872;28;20071;-64
2021/08/15 00:09:15;;;;;;;4.80;3.75;;;23.00;70.30;;;;;;4206354;28;20052;-63
2021/08/15 00:11:38;;;;;;;6.90;3.63;;;22.90;70.40;;;;;;4207688;28;20043;-63
2021/08/15 00:14:00;;;;;;;5.97;4.10;;;23.00;70.60;;;;;;4207867;28;20051;-64
2021/08/15 00:16:22;;;;;;;4.90;3.95;;;22.90;70.70;;;;;;4207281;28;20044;-64
2021/08/15 00:18:44;;;;;;;5.75;4.32;;;22.90;70.70;;;;;;4207807;28;20078;-64
2021/08/15 00:21:06;;;;;;;5.47;4.15;;;22.90;70.70;;;;;;4207568;28;20497;-63
2021/08/15 00:23:30;;;;;;;5.63;4.30;;;22.90;70.90;;;;;;4207686;28;20138;-62
2021/08/15 00:25:52;;;;;;;7.18;4.20;;;22.90;71.00;;;;;;4207794;28;20421;-61
2021/08/15 00:28:14;;;;;;;6.07;4.20;;;22.90;70.90;;;;;;4207258;28;20048;-63
2021/08/15 00:30:37;;;;;;;5.30;4.30;;;22.90;70.90;;;;;;4207581;28;20051;-63
2021/08/15 00:32:59;;;;;;;6.63;4.53;;;22.90;71.00;;;;;;4207521;28;20040;-63
2021/08/15 00:35:21;;;;;;;5.45;4.32;;;22.90;71.00;;;;;;4207307;28;20143;-62
2021/08/15 00:37:43;;;;;;;5.65;4.50;;;22.90;71.20;;;;;;4207074;28;20390;-63
2021/08/15 00:40:09;;;;;;;6.03;4.10;;;22.90;71.30;;;;;;4207879;28;20493;-62
2021/08/15 00:42:31;;;;;;;8.02;4.93;;;22.90;71.30;;;;;;4210845;28;20498;-63
2021/08/15 00:44:54;;;;;;;6.60;4.47;;;22.90;71.40;;;;;;4211030;28;20056;-63
2021/08/15 00:47:16;;;;;;;6.88;4.43;;;22.90;71.50;;;;;;4210278;28;20052;-63
2021/08/15 00:49:38;;;;;;;8.63;4.93;;;22.90;71.40;;;;;;4210616;28;20769;-62
2021/08/15 00:52:00;;;;;;;7.32;4.78;;;22.90;71.50;;;;;;4210588;28;20055;-62
2021/08/15 00:54:22;;;;;;;6.30;4.20;;;22.90;71.50;;;;;;4210546;28;20125;-62
2021/08/15 00:56:51;;;;;;;6.03;4.15;;;22.90;71.50;;;;;;4210619;28;20097;-62
2021/08/15 00:59:13;;;;;;;5.25;4.60;;;22.90;71.60;;;;;;4210117;28;20558;-63
2021/08/15 01:01:36;;;;;;;5.18;3.95;;;22.90;71.60;;;;;;4209561;28;20048;-62
2021/08/15 01:04:02;;;;;;;5.75;3.70;;;22.90;71.60;;;;;;4210446;28;20052;-61
2021/08/15 01:06:25;;;;;;;5.35;3.63;;;22.90;71.60;;;;;;4209600;28;20048;-63
2021/08/15 01:08:47;;;;;;;6.28;4.20;;;22.90;71.70;;;;;;4202662;28;20139;-62
2021/08/15 01:11:11;;;;;;;5.35;4.10;;;22.90;71.70;;;;;;4210505;28;20486;-62
2021/08/15 01:13:35;;;;;;;6.60;3.85;;;22.90;71.80;;;;;;4207072;28;20059;-62
2021/08/15 01:15:57;;;;;;;8.48;3.70;;;22.90;71.70;;;;;;4193597;28;20055;-65
2021/08/15 01:18:22;;;;;;;6.47;3.90;;;22.80;71.70;;;;;;4209392;28;20044;-62
2021/08/15 01:20:44;;;;;;;4.20;3.80;;;22.80;71.80;;;;;;4210507;28;20048;-61
2021/08/15 01:23:06;;;;;;;5.25;3.35;;;22.80;71.70;;;;;;4210200;28;20752;-63
2021/08/15 01:25:28;;;;;;;4.43;3.20;;;22.80;71.80;;;;;;4209807;28;20074;-62
2021/08/15 01:27:51;;;;;;;5.57;4.00;;;22.90;72.00;;;;;;4193519;28;20131;-61
2021/08/15 01:30:16;;;;;;;4.50;4.07;;;22.80;71.90;;;;;;4204673;28;20040;-62
2021/08/15 01:32:39;;;;;;;6.95;3.85;;;22.80;72.00;;;;;;4209833;28;20665;-62
2021/08/15 01:35:02;;;;;;;4.80;3.55;;;22.80;72.10;;;;;;4209846;28;20125;-62
2021/08/15 01:37:24;;;;;;;9.27;3.80;;;22.80;72.00;;;;;;4209432;28;20048;-63
2021/08/15 01:39:47;;;;;;;4.00;3.47;;;22.80;72.10;;;;;;4210060;28;20071;-62
2021/08/15 01:42:10;;;;;;;4.18;3.75;;;22.80;72.00;;;;;;4209678;28;20125;-63
2021/08/15 01:44:32;;;;;;;4.68;3.80;;;22.80;72.00;;;;;;4209759;28;20524;-63
2021/08/15 01:46:55;;;;;;;5.57;3.88;;;22.80;72.10;;;;;;4209235;28;20051;-63
2021/08/15 01:49:17;;;;;;;5.82;3.95;;;22.80;72.10;;;;;;4209896;28;20056;-63
2021/08/15 01:51:39;;;;;;;6.88;4.43;;;22.80;72.10;;;;;;4209347;28;20062;-63
2021/08/15 01:54:02;;;;;;;5.40;4.00;;;22.80;72.10;;;;;;4210037;28;20059;-63
2021/08/15 01:56:25;;;;;;;4.47;4.00;;;22.80;72.10;;;;;;4209895;28;20117;-63
2021/08/15 01:58:48;;;;;;;4.78;3.80;;;22.70;72.20;;;;;;4202822;28;20051;-63
2021/08/15 02:01:14;;;;;;;4.95;3.65;;;22.80;72.30;;;;;;4209089;28;20043;-62
2021/08/15 02:03:38;;;;;;;4.50;4.10;;;22.70;72.30;;;;;;4208477;28;20513;-63
2021/08/15 02:06:00;;;;;;;4.00;3.53;;;22.70;72.30;;;;;;4209240;28;20048;-63
2021/08/15 02:08:22;;;;;;;4.35;3.83;;;22.70;72.40;;;;;;4209617;28;20535;-63
2021/08/15 02:10:44;;;;;;;6.28;3.50;;;22.80;72.50;;;;;;4209650;28;20498;-63
2021/08/15 02:13:07;;;;;;;5.38;3.40;;;22.80;72.60;;;;;;4192597;28;20488;-63
2021/08/15 02:15:29;;;;;;;5.25;4.07;;;22.70;72.60;;;;;;4192902;28;20066;-63
2021/08/15 02:17:52;;;;;;;4.93;4.05;;;22.80;72.70;;;;;;4208795;28;20054;-63
2021/08/15 02:20:17;;;;;;;4.90;3.50;;;22.80;72.80;;;;;;4209396;28;20429;-63
2021/08/15 02:22:39;;;;;;;6.13;3.75;;;22.80;72.70;;;;;;4208863;28;20135;-64
2021/08/15 02:25:01;;;;;;;3.83;3.42;;;22.70;72.60;;;;;;4209396;28;20083;-63
2021/08/15 02:27:23;;;;;;;4.18;3.58;;;22.80;72.80;;;;;;4209163;28;20464;-62
2021/08/15 02:29:45;;;;;;;4.88;3.45;;;22.70;72.70;;;;;;4208857;28;20051;-63
2021/08/15 02:32:08;;;;;;;4.18;3.67;;;22.80;72.80;;;;;;4208770;28;20040;-63
2021/08/15 02:34:30;;;;;;;4.57;3.63;;;22.80;72.90;;;;;;4208879;28;20048;-63
2021/08/15 02:36:53;;;;;;;5.07;4.20;;;22.80;72.80;;;;;;4208881;28;20429;-63
2021/08/15 02:39:15;;;;;;;4.90;3.70;;;22.70;72.80;;;;;;4209351;28;20052;-63
2021/08/15 02:41:37;;;;;;;5.72;3.80;;;22.70;72.80;;;;;;4208661;28;20072;-63
2021/08/15 02:43:59;;;;;;;6.63;4.10;;;22.80;72.80;;;;;;4208783;28;20044;-63
2021/08/15 02:46:21;;;;;;;4.20;3.78;;;22.70;72.80;;;;;;4208681;28;20051;-63
2021/08/15 02:48:43;;;;;;;4.20;3.63;;;22.70;72.80;;;;;;4209044;28;20094;-63
2021/08/15 02:51:05;;;;;;;4.93;3.88;;;22.70;72.90;;;;;;4208943;28;20600;-62
2021/08/15 02:53:29;;;;;;;4.93;3.92;;;22.80;73.00;;;;;;4196612;28;20494;-63
2021/08/15 02:55:51;;;;;;;6.05;4.00;;;22.70;72.90;;;;;;4208635;28;20051;-62
2021/08/15 02:58:13;;;;;;;5.00;3.90;;;22.70;72.90;;;;;;4208426;28;20464;-62
2021/08/15 03:00:36;;;;;;;5.30;4.43;;;22.70;73.80;;;;;;4208329;28;20044;-63
2021/08/15 03:02:57;;;;;;;8.43;4.13;;;22.70;72.90;;;;;;4206587;28;20048;-63
2021/08/15 03:05:21;;;;;;;4.40;3.80;;;22.70;72.90;;;;;;4206859;28;20084;-63
2021/08/15 03:07:44;;;;;;;3.83;3.53;;;22.70;73.00;;;;;;4208226;28;20043;-63
2021/08/15 03:10:09;;;;;;;5.32;3.97;;;22.70;73.00;;;;;;4208580;28;20101;-63
2021/08/15 03:12:31;;;;;;;3.78;3.38;;;22.70;73.00;;;;;;4207878;28;20131;-63
2021/08/15 03:14:54;;;;;;;4.65;3.92;;;22.70;73.10;;;;;;4207769;28;20060;-63
2021/08/15 03:17:16;;;;;;;5.13;3.78;;;22.70;73.10;;;;;;4207364;28;20067;-63
2021/08/15 03:19:38;;;;;;;4.50;3.80;;;22.70;73.10;;;;;;4208509;28;20105;-63
2021/08/15 03:22:01;;;;;;;4.20;3.85;;;22.70;73.10;;;;;;4191399;28;20049;-63
2021/08/15 03:24:22;;;;;;;4.22;3.83;;;22.70;73.10;;;;;;4203981;28;20105;-63
2021/08/15 03:26:46;;;;;;;5.53;4.00;;;22.70;73.20;;;;;;4208075;28;20062;-62
2021/08/15 03:29:08;;;;;;;6.57;4.05;;;22.70;73.20;;;;;;4208079;28;20056;-62
2021/08/15 03:31:30;;;;;;;4.68;4.15;;;22.70;73.30;;;;;;4208090;28;20047;-62
2021/08/15 03:33:52;;;;;;;4.60;3.83;;;22.70;73.40;;;;;;4208388;28;20055;-61
2021/08/15 03:36:14;;;;;;;4.38;3.97;;;22.70;73.30;;;;;;4207942;28;20126;-62
2021/08/15 03:38:36;;;;;;;5.78;4.35;;;22.70;74.30;;;;;;4208138;28;20141;-61
2021/08/15 03:40:58;;;;;;;5.60;3.60;;;22.70;73.50;;;;;;4208039;28;20105;-61
2021/08/15 03:43:22;;;;;;;3.70;3.35;;;22.70;73.50;;;;;;4208121;28;20112;-62
2021/08/15 03:45:44;;;;;;;4.70;4.22;;;22.60;73.40;;;;;;4207737;28;20048;-62
2021/08/15 03:48:07;;;;;;;4.15;3.75;;;22.70;73.70;;;;;;4207732;28;20055;-62
2021/08/15 03:50:29;;;;;;;6.90;3.83;;;22.60;73.60;;;;;;4207929;28;20048;-62
2021/08/15 03:52:51;;;;;;;5.50;3.92;;;22.60;73.50;;;;;;4191363;28;20048;-62
2021/08/15 03:55:13;;;;;;;5.53;4.45;;;22.60;73.60;;;;;;4201718;28;20139;-63
2021/08/15 03:57:35;;;;;;;4.95;4.45;;;22.60;73.70;;;;;;4207375;28;20048;-63
2021/08/15 03:59:58;;;;;;;4.43;3.97;;;22.60;73.70;;;;;;4207811;28;20048;-62
2021/08/15 04:02:20;;;;;;;5.45;3.85;;;22.60;73.80;;;;;;4207126;28;20054;-63
2021/08/15 04:04:43;;;;;;;4.70;4.28;;;22.60;73.80;;;;;;4207717;28;20055;-63
2021/08/15 04:07:05;;;;;;;4.50;4.13;;;22.60;73.90;;;;;;4196422;28;20101;-63
2021/08/15 04:09:27;;;;;;;5.38;3.83;;;22.60;74.00;;;;;;4207910;28;20054;-63
2021/08/15 04:11:49;;;;;;;3.88;3.58;;;22.60;74.00;;;;;;4207229;28;20059;-63
2021/08/15 04:14:11;;;;;;;4.15;3.80;;;22.60;74.00;;;;;;4207294;28;20052;-62
2021/08/15 04:16:35;;;;;;;4.15;3.75;;;22.60;74.10;;;;;;4207595;28;20105;-62
2021/08/15 04:18:57;;;;;;;5.45;3.97;;;22.60;74.10;;;;;;4207589;28;20106;-62
2021/08/15 04:21:19;;;;;;;5.18;3.60;;;22.60;74.20;;;;;;4207878;28;20513;-61
2021/08/15 04:23:41;;;;;;;5.05;3.95;;;22.60;74.10;;;;;;4207772;28;20105;-62
2021/08/15 04:26:04;;;;;;;4.05;3.75;;;22.60;74.10;;;;;;4207811;28;20052;-61
2021/08/15 04:28:26;;;;;;;5.03;4.38;;;22.60;74.00;;;;;;4196081;28;20131;-61
2021/08/15 04:30:48;;;;;;;4.85;4.25;;;22.60;74.00;;;;;;4206405;28;20044;-60
2021/08/15 04:33:16;;;;;;;4.40;3.83;;;22.60;74.00;;;;;;4198022;28;20456;-61
2021/08/15 04:35:38;;;;;;;4.15;3.30;;;22.60;74.00;;;;;;4196423;28;20048;-61
2021/08/15 04:38:00;;;;;;;4.47;4.03;;;22.60;74.00;;;;;;4207765;28;20123;-61
2021/08/15 04:40:22;;;;;;;3.70;3.40;;;22.60;74.00;;;;;;4207528;28;20147;-61
2021/08/15 04:42:44;;;;;;;4.75;3.78;;;22.60;74.00;;;;;;4207596;28;20503;-61
2021/08/15 04:45:07;;;;;;;3.72;3.45;;;22.60;74.00;;;;;;4207653;28;20444;-61
2021/08/15 04:47:29;;;;;;;3.97;3.33;;;22.60;74.50;;;;;;4199655;28;20101;-62
2021/08/15 04:49:52;;;;;;;4.47;4.07;;;22.60;74.00;;;;;;4207641;28;20413;-60
2021/08/15 04:52:14;;;;;;;5.97;3.55;;;22.60;74.00;;;;;;4206983;28;20055;-62
2021/08/15 04:54:37;;;;;;;3.97;3.22;;;22.60;73.90;;;;;;4207199;28;20136;-62
2021/08/15 04:57:00;;;;;;;3.80;3.08;;;22.60;74.00;;;;;;4207330;28;20409;-62
2021/08/15 04:59:23;;;;;;;5.10;3.65;;;22.60;73.20;;;;;;4206882;28;20130;-62
2021/08/15 05:01:45;;;;;;;4.47;3.45;;;22.60;74.00;;;;;;4203556;28;20110;-62
2021/08/15 05:04:07;;;;;;;5.82;3.75;;;22.60;73.90;;;;;;4207301;28;20075;-62
2021/08/15 05:06:33;;;;;;;3.55;3.22;;;22.60;73.90;;;;;;4206951;28;20177;-62
2021/08/15 05:08:55;;;;;;;3.75;3.35;;;22.60;73.80;;;;;;4207497;28;20051;-61
2021/08/15 05:11:18;;;;;;;4.43;3.70;;;22.60;73.90;;;;;;4207129;28;20059;-63
2021/08/15 05:13:40;;;;;;;3.63;3.33;;;22.60;74.00;;;;;;4196663;28;20051;-63
2021/08/15 05:16:02;;;;;;;4.10;3.72;;;22.60;73.90;;;;;;4207269;28;20103;-63
2021/08/15 05:18:24;;;;;;;3.92;3.30;;;22.50;74.00;;;;;;4206917;28;20577;-62
2021/08/15 05:20:46;;;;;;;4.03;3.63;;;22.50;74.10;;;;;;4206720;28;20063;-62
2021/08/15 05:23:10;;;;;;;4.60;3.83;;;22.50;74.10;;;;;;4206871;28;20054;-62
2021/08/15 05:25:32;;;;;;;4.88;3.85;;;22.60;74.20;;;;;;4207413;28;20102;-62
2021/08/15 05:27:54;;;;;;;3.78;3.47;;;22.60;74.10;;;;;;4208166;28;20072;-63
2021/08/15 05:30:17;;;;;;;6.57;3.53;;;22.60;74.90;;;;;;4209823;28;20052;-63
2021/08/15 05:32:39;;;;;;;3.53;3.22;;;22.60;74.10;;;;;;4203948;28;20545;-62
2021/08/15 05:35:01;;;;;;;3.55;3.25;;;22.60;74.90;;;;;;4210028;28;20452;-63
2021/08/15 05:37:23;;;;;;;3.50;3.20;;;22.50;74.00;;;;;;4201619;28;20064;-63
2021/08/15 05:39:46;;;;;;;4.32;3.60;;;22.60;74.90;;;;;;4210133;28;20048;-63
2021/08/15 05:42:09;;;;;;;5.55;3.67;;;22.60;73.90;;;;;;4207865;28;20052;-62
2021/08/15 05:44:31;;;;;;;4.40;4.00;;;22.60;73.90;;;;;;4193292;28;20044;-62
2021/08/15 05:46:55;;;;;;;4.38;3.60;;;22.60;73.80;;;;;;4207339;28;22254;-63
2021/08/15 05:49:17;;;;;;;4.13;3.70;;;22.60;73.90;;;;;;4210019;28;20135;-63
2021/08/15 05:51:39;;;;;;;4.53;3.75;;;22.60;74.20;;;;;;4209438;28;20079;-63
2021/08/15 05:54:01;;;;;;;3.78;3.45;;;22.60;74.20;;;;;;4209900;28;20495;-65
2021/08/15 05:56:25;;;;;;;4.47;4.00;;;22.60;74.20;;;;;;4207138;28;20060;-63
2021/08/15 05:58:47;;;;;;;3.70;3.40;;;22.60;74.00;;;;;;4193072;28;20049;-64
2021/08/15 06:01:09;;;;;;;5.05;3.70;;;22.70;74.00;;;;;;4197886;28;20072;-64
2021/08/15 06:03:31;;;;;;;3.60;3.40;;;22.60;73.90;;;;;;4192599;28;20134;-63
2021/08/15 06:05:53;;;;;;;4.95;3.55;;;22.60;74.00;;;;;;4203596;28;20440;-62
2021/08/15 06:08:16;;;;;;;5.38;4.00;;;22.60;74.00;;;;;;4209669;28;20062;-64
2021/08/15 06:10:38;;;;;;;4.15;3.75;;;22.60;74.90;;;;;;4192717;28;20060;-63
2021/08/15 06:13:02;;;;;;;4.70;3.50;;;22.70;74.00;;;;;;4192598;28;20406;-62
2021/08/15 06:15:24;;;;;;;4.15;3.42;;;22.60;73.90;;;;;;4194937;28;20098;-63
2021/08/15 06:17:46;;;;;;;4.40;3.95;;;22.70;74.00;;;;;;4209470;28;20193;-63
2021/08/15 06:20:09;;;;;;;4.50;4.07;;;22.70;73.90;;;;;;4209327;28;20405;-63
2021/08/15 06:22:31;;;;;;;4.25;3.75;;;22.70;74.00;;;;;;4209144;28;20074;-63
2021/08/15 06:24:53;;;;;;;4.43;3.35;;;22.70;74.00;;;;;;4209208;28;20536;-64
2021/08/15 06:27:19;;;;;;;4.25;3.47;;;22.70;74.00;;;;;;4209009;28;20052;-64
2021/08/15 06:29:42;;;;;;;4.55;4.15;;;22.70;74.00;;;;;;4208996;28;20135;-66
2021/08/15 06:32:05;;;;;;;4.47;3.67;;;22.70;73.80;;;;;;4199429;28;20059;-64
2021/08/15 06:34:27;;;;;;;4.47;3.75;;;22.70;73.80;;;;;;4207311;28;20052;-63
2021/08/15 06:36:49;;;;;;;3.85;3.53;;;22.70;74.70;;;;;;4209205;28;20490;-63
2021/08/15 06:39:11;;;;;;;5.05;3.90;;;22.70;73.90;;;;;;4208716;28;20584;-62
2021/08/15 06:41:33;;;;;;;4.97;4.10;;;22.70;73.80;;;;;;4208875;28;20051;-64
2021/08/15 06:43:55;;;;;;;4.32;3.92;;;22.70;73.80;;;;;;4208917;28;20097;-64
2021/08/15 06:46:19;;;;;;;3.38;3.08;;;22.80;73.90;;;;;;4208269;28;20158;-64
2021/08/15 06:48:44;;;;;;;4.10;3.72;;;22.80;73.90;;;;;;4208837;28;20117;-64
2021/08/15 06:51:06;;;;;;;3.58;3.28;;;22.80;73.90;;;;;;4209076;28;22775;-62
2021/08/15 06:53:29;;;;;;;3.20;3.00;;;22.80;73.80;;;;;;4208936;28;20485;-62
2021/08/15 06:55:51;;;;;;;4.65;3.83;;;22.80;73.80;;;;;;4209071;28;20134;-62
2021/08/15 06:58:13;;;;;;;6.45;3.75;;;22.90;73.70;;;;;;4209088;28;20044;-64
2021/08/15 07:00:35;;;;;;;3.78;3.40;;;22.90;73.20;;;;;;4208356;28;20491;-62
2021/08/15 07:03:00;;;;;;;4.25;3.38;;;22.90;73.50;;;;;;4208253;28;20055;-64
2021/08/15 07:05:22;;;;;;;4.78;3.35;;;23.00;73.70;;;;;;4208162;28;20716;-64
2021/08/15 07:07:44;;;;;;;4.25;3.50;;;23.00;73.70;;;;;;4208764;28;20044;-64
2021/08/15 07:10:08;;;;;;;5.40;3.08;;;23.00;73.60;;;;;;4208273;28;20036;-62
2021/08/15 07:12:30;;;;;;;4.22;3.20;;;23.10;73.60;;;;;;4208660;28;20048;-64
2021/08/15 07:14:52;;;;;;;4.57;3.63;;;23.20;73.50;;;;;;4208893;28;20486;-64
2021/08/15 07:17:14;;;;;;;5.80;3.40;;;23.20;73.30;;;;;;4208446;28;20068;-65
2021/08/15 07:19:38;;;;;;;3.75;2.92;;;23.20;73.00;;;;;;4208453;28;20055;-63
2021/08/15 07:22:00;;;;;;;3.95;3.55;;;23.30;72.90;;;;;;4208457;28;20054;-62
2021/08/15 07:24:22;;;;;;;3.25;2.80;;;23.30;72.80;;;;;;4208486;28;20520;-64
2021/08/15 07:26:44;;;;;;;3.92;3.22;;;23.30;72.60;;;;;;4208232;28;20048;-63
2021/08/15 07:29:06;;;;;;;3.75;3.40;;;23.40;72.50;;;;;;4208299;28;20067;-64
2021/08/15 07:31:28;;;;;;;3.42;3.13;;;23.40;72.40;;;;;;4207912;28;20082;-64
2021/08/15 07:33:51;;;;;;;4.13;2.97;;;23.50;72.40;;;;;;4208383;28;20051;-64
2021/08/15 07:36:15;;;;;;;3.35;3.03;;;23.50;72.20;;;;;;4207894;28;20413;-64
2021/08/15 07:38:37;;;;;;;4.95;2.95;;;23.50;72.10;;;;;;4208129;28;20040;-63
2021/08/15 07:40:59;;;;;;;3.22;3.00;;;23.60;72.10;;;;;;4207647;28;20054;-63
2021/08/15 07:43:22;;;;;;;3.08;2.60;;;23.60;72.00;;;;;;4207178;28;20061;-62
2021/08/15 07:45:44;;;;;;;4.22;3.20;;;23.60;71.90;;;;;;4207787;28;20054;-65
2021/08/15 07:48:07;;;;;;;5.00;3.08;;;23.60;72.10;;;;;;4207416;28;20047;-61
2021/08/15 07:50:35;;;;;;;5.00;2.85;;;23.60;72.60;;;;;;4206440;28;20052;-62
2021/08/15 07:52:58;;;;;;;3.08;2.78;;;23.70;72.20;;;;;;4199560;28;20048;-62
2021/08/15 07:55:20;;;;;;;5.72;3.35;;;23.70;73.10;;;;;;4197814;28;20476;-62
2021/08/15 07:57:42;;;;;;;4.13;3.22;;;23.70;72.00;;;;;;4207878;28;20047;-61
2021/08/15 08:00:07;;;;;;;2.97;2.63;;;23.60;71.70;;;;;;4198460;28;20052;-62
2021/08/15 08:02:29;;;;;;;3.50;2.60;;;23.60;71.70;;;;;;4207643;28;20067;-62
2021/08/15 08:04:51;;;;;;;5.40;3.28;;;23.60;71.70;;;;;;4207589;28;20052;-62
2021/08/15 08:07:14;;;;;;;3.97;3.25;;;23.60;71.60;;;;;;4191186;28;20111;-63
2021/08/15 08:09:37;;;;;;;3.50;3.20;;;23.60;72.60;;;;;;4193527;28;20066;-62
2021/08/15 08:12:00;;;;;;;6.13;3.25;;;23.60;71.70;;;;;;4207664;28;20573;-63
2021/08/15 08:14:22;;;;;;;4.30;3.25;;;23.60;71.70;;;;;;4207530;28;20186;-63
2021/08/15 08:16:44;;;;;;;3.97;3.20;;;23.70;71.80;;;;;;4207493;28;20054;-63
2021/08/15 08:19:06;;;;;;;3.05;2.75;;;23.70;71.80;;;;;;4207668;28;20048;-63
2021/08/15 08:21:28;;;;;;;3.40;2.70;;;23.70;71.70;;;;;;4206986;28;20056;-63
2021/08/15 08:23:50;;;;;;;3.58;2.67;;;23.70;71.60;;;;;;4204166;28;20062;-62
2021/08/15 08:26:14;;;;;;;4.53;2.58;;;23.70;71.60;;;;;;4207110;28;20131;-63
2021/08/15 08:28:36;;;;;;;6.15;3.28;;;23.80;71.50;;;;;;4207121;28;20127;-63
2021/08/15 08:30:58;;;;;;;4.95;3.20;;;23.80;71.30;;;;;;4203594;28;20485;-63
2021/08/15 08:33:20;;;;;;;3.88;2.92;;;23.80;71.10;;;;;;4206337;28;20064;-63
2021/08/15 08:35:42;;;;;;;2.75;2.55;;;23.80;70.90;;;;;;4207579;28;20049;-63
2021/08/15 08:38:04;;;;;;;3.35;3.03;;;23.80;70.90;;;;;;4207463;28;20040;-63
2021/08/15 08:40:27;;;;;;;3.60;3.20;;;23.90;70.80;;;;;;4207141;28;20051;-63
2021/08/15 08:42:51;;;;;;;5.07;3.58;;;23.90;70.70;;;;;;4207306;28;20054;-62
2021/08/15 08:45:17;;;;;;;3.42;3.13;;;23.90;70.50;;;;;;4207135;28;20122;-63
2021/08/15 08:47:40;;;;;;;4.22;3.00;;;23.90;70.40;;;;;;4207569;28;20135;-65
2021/08/15 08:50:03;;;;;;;4.20;2.70;;;23.90;70.30;;;;;;4207576;28;20122;-65
2021/08/15 08:52:25;;;;;;;4.88;3.42;;;23.90;70.20;;;;;;4207508;28;20113;-63
2021/08/15 08:54:47;;;;;;;3.00;2.70;;;24.00;70.30;;;;;;4207388;28;20048;-63
2021/08/15 08:57:09;;;;;;;3.10;2.83;;;24.00;70.20;;;;;;4207269;28;20052;-62
2021/08/15 08:59:37;;;;;;;3.85;2.83;;;24.00;70.10;;;;;;4207259;28;20071;-63
2021/08/15 09:01:59;;;;;;;4.07;3.42;;;24.00;70.00;;;;;;4209170;28;20056;-65
2021/08/15 09:04:22;;;;;;;3.42;3.08;;;24.00;70.00;;;;;;4210320;28;20046;-65
2021/08/15 09:06:44;;;;;;;4.32;3.22;;;24.00;70.00;;;;;;4209994;28;20059;-65
2021/08/15 09:09:11;;;;;;;3.50;3.20;;;24.10;69.70;;;;;;4210405;28;20040;-63
2021/08/15 09:11:33;;;;;;;5.55;3.28;;;24.10;69.80;;;;;;4208370;28;20047;-63
2021/08/15 09:14:03;;;;;;;3.60;3.30;;;24.10;69.70;;;;;;4197713;28;20087;-63
2021/08/15 09:16:52;;;;;;;3.10;2.80;;;24.10;69.70;;;;;;4192788;28;20049;-63
2021/08/15 09:19:29;;;;;;;4.93;3.25;;;24.10;69.60;;;;;;4204728;28;20056;-63
2021/08/15 09:21:51;;;;;;;4.82;3.60;;;24.20;69.70;;;;;;4201282;28;20047;-63
2021/08/15 09:24:13;;;;;;;3.55;3.22;;;24.20;70.60;;;;;;4209676;28;20662;-63
2021/08/15 09:26:35;;;;;;;4.97;3.22;;;24.20;69.40;;;;;;4210059;28;20482;-63
2021/08/15 09:28:57;;;;;;;5.93;3.58;;;24.20;69.30;;;;;;4209482;28;20490;-63
2021/08/15 09:31:23;;;;;;;4.70;3.88;;;24.20;69.30;;;;;;4193317;28;20052;-63
2021/08/15 09:33:47;;;;;;;4.82;3.85;;;24.20;69.30;;;;;;4193384;28;20060;-63
2021/08/15 09:36:10;;;;;;;4.88;3.60;;;24.30;69.10;;;;;;4193335;28;20076;-65
2021/08/15 09:38:42;;;;;;;4.10;3.50;;;24.30;69.10;;;;;;4198507;28;20558;-63
2021/08/15 09:41:05;;;;;;;5.90;3.80;;;24.30;69.10;;;;;;4205581;28;20125;-63
2021/08/15 09:43:30;;;;;;;4.68;4.03;;;24.30;69.00;;;;;;4209394;28;20417;-63
2021/08/15 09:45:53;;;;;;;3.67;3.33;;;24.30;69.10;;;;;;4209515;28;20063;-62
2021/08/15 09:48:28;;;;;;;4.70;3.67;;;24.30;69.00;;;;;;4209913;28;20048;-63
2021/08/15 09:51:07;;;;;;;4.80;3.70;;;24.30;68.90;;;;;;4209782;28;20387;-63
2021/08/15 09:53:29;;;;;;;4.07;3.25;;;24.40;69.00;;;;;;4208568;28;20044;-63
2021/08/15 09:55:51;;;;;;;4.63;3.42;;;24.40;69.10;;;;;;4209714;28;20040;-63
2021/08/15 09:58:17;;;;;;;4.50;3.08;;;24.40;69.00;;;;;;4209678;28;20060;-63
2021/08/15 10:00:39;;;;;;;5.82;3.58;;;24.40;69.00;;;;;;4196129;28;20051;-63
2021/08/15 10:03:03;;;;;;;4.30;3.67;;;24.40;69.00;;;;;;4209718;28;20070;-63
2021/08/15 10:05:25;;;;;;;4.85;3.20;;;24.40;69.20;;;;;;4209522;28;20048;-63
2021/08/15 10:07:49;;;;;;;6.07;3.22;;;24.40;69.10;;;;;;4209588;28;20052;-63
2021/08/15 10:10:12;;;;;;;5.72;3.35;;;24.40;69.00;;;;;;4209596;28;20051;-63
2021/08/15 10:12:34;;;;;;;5.90;3.42;;;24.40;69.20;;;;;;4208814;28;20044;-62
2021/08/15 10:14:56;;;;;;;3.63;3.30;;;24.40;69.20;;;;;;4207279;28;20056;-63
2021/08/15 10:17:20;;;;;;;4.30;3.28;;;24.50;69.10;;;;;;4207319;28;20052;-63
2021/08/15 10:19:47;;;;;;;5.00;3.20;;;24.50;69.10;;;;;;4208983;28;20048;-63
2021/08/15 10:22:10;;;;;;;5.30;3.72;;;24.50;68.90;;;;;;4209174;28;20075;-63
2021/08/15 10:24:46;;;;;;;6.22;3.53;;;24.50;68.80;;;;;;4209351;28;20052;-63
2021/08/15 10:27:08;;;;;;;4.22;2.97;;;24.50;69.00;;;;;;4208953;28;20040;-63
2021/08/15 10:29:34;;;;;;;4.72;3.33;;;24.50;69.00;;;;;;4209101;28;20390;-63
2021/08/15 10:32:14;;;;;;;5.35;3.10;;;24.50;69.00;;;;;;4208949;28;20052;-63
2021/08/15 10:35:15;;;;;;;3.75;3.35;;;24.50;69.10;;;;;;4206324;28;20055;-62
2021/08/15 10:37:38;;;;;;;5.03;3.65;;;24.50;68.90;;;;;;4195905;28;20044;-62
2021/08/15 10:40:03;;;;;;;4.18;3.38;;;24.50;68.70;;;;;;4208891;28;20051;-63
2021/08/15 10:42:44;;;;;;;5.43;3.25;;;24.50;68.60;;;;;;4208394;28;20410;-63
2021/08/15 10:45:08;;;;;;;;;;;24.50;68.90;;;;;;4192543;28;20050;-62
2021/08/15 10:47:33;;;;;;;4.60;2.75;;;24.60;68.80;;;;;;4192287;28;20393;-63
2021/08/15 10:49:58;;;;;;;3.78;2.90;;;24.60;68.90;;;;;;4192096;28;20044;-63
2021/08/15 10:52:34;;;;;;;3.10;2.10;;;24.60;68.80;;;;;;4192155;28;20426;-62
2021/08/15 10:55:00;;;;;;;4.13;3.20;;;24.70;68.50;;;;;;4191859;28;20068;-63
2021/08/15 10:57:53;;;;;;;4.63;3.35;;;24.70;68.50;;;;;;4201987;28;20051;-62
2021/08/15 11:00:44;;;;;;;3.38;3.00;;;24.70;68.40;;;;;;4208381;28;20497;-62
2021/08/15 11:03:45;;;;;;;3.88;2.70;;;24.80;68.30;;;;;;4208659;28;20052;-63
2021/08/15 11:06:45;;;;;;;5.70;3.35;;;24.80;68.10;;;;;;4207920;28;20115;-63
2021/08/15 11:09:08;;;;;;;6.43;3.00;;;24.70;68.00;;;;;;4191768;28;20854;-61
2021/08/15 11:11:33;;;;;;;5.82;3.08;;;24.70;68.00;;;;;;4191872;28;20141;-61
2021/08/15 11:14:28;;;;;;;4.63;3.08;;;24.70;67.80;;;;;;4191814;28;20060;-62
2021/08/15 11:16:52;;;;;;;5.88;2.85;;;24.80;67.70;;;;;;4191564;28;20048;-61
2021/08/15 11:19:31;;;;;;;3.70;3.05;;;24.80;67.70;;;;;;4191659;28;20058;-62
2021/08/15 11:22:17;;;;;;;7.97;3.17;;;24.70;67.50;;;;;;4202297;28;20113;-60
2021/08/15 11:24:47;;;;;;;4.38;2.90;;;24.70;67.50;;;;;;4206467;28;20048;-62
2021/08/15 11:27:09;;;;;;;6.93;2.95;;;24.80;67.60;;;;;;4207440;28;20095;-62
2021/08/15 11:29:33;;;;;;;4.25;2.72;;;24.80;67.50;;;;;;4207810;28;20067;-62
2021/08/15 11:31:57;;;;;;;5.30;3.42;;;24.80;67.50;;;;;;4208153;28;20040;-63
2021/08/15 11:34:19;;;;;;;4.95;3.53;;;24.80;67.30;;;;;;4208237;28;20052;-63
2021/08/15 11:36:41;;;;;;;3.83;2.88;;;24.90;67.30;;;;;;4191053;28;20555;-62
2021/08/15 11:39:06;;;;;;;3.60;2.92;;;24.80;67.20;;;;;;4191099;28;20131;-62
2021/08/15 11:41:28;;;;;;;6.30;2.92;;;24.90;67.30;;;;;;4192990;28;20055;-63
2021/08/15 11:43:55;;;;;;;4.25;2.63;;;24.90;67.40;;;;;;4198927;28;20044;-62
2021/08/15 11:46:22;;;;;;;5.75;2.80;;;24.90;67.10;;;;;;4207551;28;20134;-63
2021/08/15 11:48:45;;;;;;;4.70;2.30;;;24.90;67.30;;;;;;4207716;28;20107;-63
2021/08/15 11:51:10;;;;;;;5.95;3.50;;;24.90;67.10;;;;;;4206127;28;20097;-62
2021/08/15 11:53:35;;;;;;;3.42;2.70;;;24.90;67.00;;;;;;4208030;28;20051;-62
2021/08/15 11:56:00;;;;;;;5.20;3.20;;;25.00;66.90;;;;;;4207921;28;20048;-62
2021/08/15 11:58:22;;;;;;;4.95;3.58;;;25.00;66.70;;;;;;4207898;28;20056;-62
2021/08/15 12:00:45;;;;;;;5.10;3.00;;;25.00;66.60;;;;;;4204701;28;20052;-63
2021/08/15 12:03:10;;;;;;;5.50;2.70;;;25.00;66.40;;;;;;4207798;28;20060;-62
2021/08/15 12:05:34;;;;;;;4.28;3.05;;;25.10;66.20;;;;;;4207300;28;20040;-63
2021/08/15 12:08:06;;;;;;;4.22;3.17;;;25.10;66.30;;;;;;4207398;28;20079;-63
2021/08/15 12:10:31;;;;;;;3.55;3.25;;;25.10;66.20;;;;;;4207605;28;20052;-63
2021/08/15 12:13:25;;;;;;;7.70;3.38;;;25.10;66.10;;;;;;4207267;28;20108;-63
2021/08/15 12:15:50;;;;;;;5.28;2.78;;;25.10;66.20;;;;;;4138915;28;20042;-61
2021/08/15 12:18:32;;;;;;;4.97;2.78;;;25.10;66.20;;;;;;4198336;28;20048;-62
2021/08/15 12:20:56;;;;;;;5.20;3.30;;;25.10;66.00;;;;;;4207274;28;20124;-62
2021/08/15 12:23:18;;;;;;;3.42;2.22;;;25.10;66.90;;;;;;4207572;28;20564;-61
2021/08/15 12:25:40;;;;;;;4.75;3.03;;;25.10;66.00;;;;;;4206312;28;20947;-61
2021/08/15 12:28:12;;;;;;;3.35;3.03;;;25.20;65.90;;;;;;4207304;28;20375;-64
2021/08/15 12:30:34;;;;;;;4.10;2.78;;;25.10;65.70;;;;;;4203398;28;20547;-63
2021/08/15 12:32:56;;;;;;;5.72;2.67;;;25.20;65.80;;;;;;4192849;28;20071;-62